sensor_id;sensor_type;location;lat;lon;timestamp;temperature;humidity
23471;DHT22;11908;50.806;4.424;2024-03-08T00:02:17;5.70;99.90
23471;DHT22;11908;50.806;4.424;2024-03-08T00:04:42;5.70;99.90
23471;DHT22;11908;50.806;4.424;2024-03-08T00:07:08;5.70;99.90
23471;DHT22;11908;50.806;4.424;2024-03-08T00:09:34;5.80;99.90
23471;DHT22;11908;50.806;4.424;2024-03-08T00:12:00;5.70;99.90
23471;DHT22;11908;50.806;4.424;2024-03-08T00:14:25;5.60;99.90
23471;DHT22;11908;50.806;4.424;2024-03-08T00:16:51;5.70;99.90
23471;DHT22;11908;50.806;4.424;2024-03-08T00:19:18;5.60;99.90
23471;DHT22;11908;50.806;4.424;2024-03-08T00:21:44;5.70;99.90
23471;DHT22;11908;50.806;4.424;2024-03-08T00:24:10;5.70;99.90
23471;DHT22;11908;50.806;4.424;2024-03-08T00:26:37;5.70;99.90
23471;DHT22;11908;50.806;4.424;2024-03-08T00:29:03;5.60;99.90
23471;DHT22;11908;50.806;4.424;2024-03-08T00:31:29;5.60;99.90
23471;DHT22;11908;50.806;4.424;2024-03-08T00:33:57;5.60;99.90
23471;DHT22;11908;50.806;4.424;2024-03-08T00:36:23;5.50;99.90
23471;DHT22;11908;50.806;4.424;2024-03-08T00:38:50;5.60;99.90
23471;DHT22;11908;50.806;4.424;2024-03-08T00:41:16;5.50;99.90
23471;DHT22;11908;50.806;4.424;2024-03-08T00:43:42;5.50;99.90
23471;DHT22;11908;50.806;4.424;2024-03-08T00:46:07;5.50;99.90
23471;DHT22;11908;50.806;4.424;2024-03-08T00:48:33;5.60;99.90
23471;DHT22;11908;50.806;4.424;2024-03-08T00:50:59;5.50;99.90
23471;DHT22;11908;50.806;4.424;2024-03-08T00:53:25;5.40;99.90
23471;DHT22;11908;50.806;4.424;2024-03-08T00:55:50;5.30;99.90
23471;DHT22;11908;50.806;4.424;2024-03-08T00:58:17;5.30;99.90
23471;DHT22;11908;50.806;4.424;2024-03-08T01:00:43;5.40;99.90
23471;DHT22;11908;50.806;4.424;2024-03-08T01:03:10;5.40;99.90
23471;DHT22;11908;50.806;4.424;2024-03-08T01:05:36;5.40;99.90
23471;DHT22;11908;50.806;4.424;2024-03-08T01:08:01;5.30;99.90
23471;DHT22;11908;50.806;4.424;2024-03-08T01:10:29;5.40;99.90
23471;DHT22;11908;50.806;4.424;2024-03-08T01:12:54;5.30;99.90
23471;DHT22;11908;50.806;4.424;2024-03-08T01:15:22;5.30;99.90
23471;DHT22;11908;50.806;4.424;2024-03-08T01:17:48;5.30;99.90
23471;DHT22;11908;50.806;4.424;2024-03-08T01:20:14;5.20;99.90
23471;DHT22;11908;50.806;4.424;2024-03-08T01:22:40;5.30;99.90
23471;DHT22;11908;50.806;4.424;2024-03-08T01:25:06;5.20;99.90
23471;DHT22;11908;50.806;4.424;2024-03-08T01:27:32;5.10;99.90
23471;DHT22;11908;50.806;4.424;2024-03-08T01:29:58;5.10;99.90
23471;DHT22;11908;50.806;4.424;2024-03-08T01:32:25;5.10;99.90
23471;DHT22;11908;50.806;4.424;2024-03-08T01:34:50;5.10;99.90
23471;DHT22;11908;50.806;4.424;2024-03-08T01:37:16;5.10;99.90
23471;DHT22;11908;50.806;4.424;2024-03-08T01:39:42;5.10;99.90
23471;DHT22;11908;50.806;4.424;2024-03-08T01:42:08;5.10;99.90
23471;DHT22;11908;50.806;4.424;2024-03-08T01:44:35;5.00;99.90
23471;DHT22;11908;50.806;4.424;2024-03-08T01:47:01;4.90;99.90
23471;DHT22;11908;50.806;4.424;2024-03-08T01:49:27;5.00;99.90
23471;DHT22;11908;50.806;4.424;2024-03-08T01:51:54;4.80;99.90
23471;DHT22;11908;50.806;4.424;2024-03-08T01:54:22;4.80;99.90
23471;DHT22;11908;50.806;4.424;2024-03-08T01:56:50;4.80;99.90
23471;DHT22;11908;50.806;4.424;2024-03-08T01:59:18;4.90;99.90
23471;DHT22;11908;50.806;4.424;2024-03-08T02:01:44;4.90;99.90
23471;DHT22;11908;50.806;4.424;2024-03-08T02:04:10;4.90;99.90
23471;DHT22;11908;50.806;4.424;2024-03-08T02:06:36;4.70;99.90
23471;DHT22;11908;50.806;4.424;2024-03-08T02:09:03;4.70;99.90
23471;DHT22;11908;50.806;4.424;2024-03-08T02:11:33;4.70;99.90
23471;DHT22;11908;50.806;4.424;2024-03-08T02:14:00;4.70;99.90
23471;DHT22;11908;50.806;4.424;2024-03-08T02:16:25;4.80;99.90
23471;DHT22;11908;50.806;4.424;2024-03-08T02:18:51;4.80;99.90
23471;DHT22;11908;50.806;4.424;2024-03-08T02:21:18;4.70;99.90
23471;DHT22;11908;50.806;4.424;2024-03-08T02:23:44;4.60;99.90
23471;DHT22;11908;50.806;4.424;2024-03-08T02:26:10;4.50;99.90
23471;DHT22;11908;50.806;4.424;2024-03-08T02:28:36;4.60;99.90
23471;DHT22;11908;50.806;4.424;2024-03-08T02:31:02;4.50;99.90
23471;DHT22;11908;50.806;4.424;2024-03-08T02:33:28;4.50;99.90
23471;DHT22;11908;50.806;4.424;2024-03-08T02:35:54;4.50;99.90
23471;DHT22;11908;50.806;4.424;2024-03-08T02:38:22;4.40;99.90
23471;DHT22;11908;50.806;4.424;2024-03-08T02:40:50;4.50;99.90
23471;DHT22;11908;50.806;4.424;2024-03-08T02:43:17;4.40;99.90
23471;DHT22;11908;50.806;4.424;2024-03-08T02:45:44;4.40;99.90
23471;DHT22;11908;50.806;4.424;2024-03-08T02:48:11;4.40;99.90
23471;DHT22;11908;50.806;4.424;2024-03-08T02:50:37;4.30;99.90
23471;DHT22;11908;50.806;4.424;2024-03-08T02:53:05;4.40;99.90
23471;DHT22;11908;50.806;4.424;2024-03-08T02:55:31;4.30;99.90
23471;DHT22;11908;50.806;4.424;2024-03-08T02:58:00;4.30;99.90
23471;DHT22;11908;50.806;4.424;2024-03-08T03:00:25;4.40;99.90
23471;DHT22;11908;50.806;4.424;2024-03-08T03:02:52;4.30;99.90
23471;DHT22;11908;50.806;4.424;2024-03-08T03:05:23;4.30;99.90
23471;DHT22;11908;50.806;4.424;2024-03-08T03:07:49;4.30;99.90
23471;DHT22;11908;50.806;4.424;2024-03-08T03:10:17;4.20;99.90
23471;DHT22;11908;50.806;4.424;2024-03-08T03:12:44;4.20;99.90
23471;DHT22;11908;50.806;4.424;2024-03-08T03:15:11;4.20;99.90
23471;DHT22;11908;50.806;4.424;2024-03-08T03:17:38;4.20;99.90
23471;DHT22;11908;50.806;4.424;2024-03-08T03:20:08;4.20;99.90
23471;DHT22;11908;50.806;4.424;2024-03-08T03:22:38;4.20;99.90
23471;DHT22;11908;50.806;4.424;2024-03-08T03:25:04;4.10;99.90
23471;DHT22;11908;50.806;4.424;2024-03-08T03:27:32;4.10;99.90
23471;DHT22;11908;50.806;4.424;2024-03-08T03:29:58;4.10;99.90
23471;DHT22;11908;50.806;4.424;2024-03-08T03:32:23;4.10;99.90
23471;DHT22;11908;50.806;4.424;2024-03-08T03:34:50;4.10;99.90
23471;DHT22;11908;50.806;4.424;2024-03-08T03:37:21;4.00;99.90
23471;DHT22;11908;50.806;4.424;2024-03-08T03:39:47;4.00;99.90
23471;DHT22;11908;50.806;4.424;2024-03-08T03:42:19;3.90;99.90
23471;DHT22;11908;50.806;4.424;2024-03-08T03:44:48;3.90;99.90
23471;DHT22;11908;50.806;4.424;2024-03-08T03:47:15;3.90;99.90
23471;DHT22;11908;50.806;4.424;2024-03-08T03:49:41;3.90;99.90
23471;DHT22;11908;50.806;4.424;2024-03-08T03:52:08;3.80;99.90
23471;DHT22;11908;50.806;4.424;2024-03-08T03:54:34;3.90;99.90
23471;DHT22;11908;50.806;4.424;2024-03-08T03:57:00;3.90;99.90
23471;DHT22;11908;50.806;4.424;2024-03-08T03:59:26;3.90;99.90
23471;DHT22;11908;50.806;4.424;2024-03-08T04:01:53;3.80;99.90
23471;DHT22;11908;50.806;4.424;2024-03-08T04:04:19;3.80;99.90
23471;DHT22;11908;50.806;4.424;2024-03-08T04:06:44;3.80;99.90
23471;DHT22;11908;50.806;4.424;2024-03-08T04:09:10;3.80;99.90
23471;DHT22;11908;50.806;4.424;2024-03-08T04:11:38;3.80;99.90
23471;DHT22;11908;50.806;4.424;2024-03-08T04:14:04;3.80;99.90
23471;DHT22;11908;50.806;4.424;2024-03-08T04:16:31;3.80;99.90
23471;DHT22;11908;50.806;4.424;2024-03-08T04:18:59;3.80;99.90
23471;DHT22;11908;50.806;4.424;2024-03-08T04:21:25;3.70;99.90
23471;DHT22;11908;50.806;4.424;2024-03-08T04:23:51;3.70;99.90
23471;DHT22;11908;50.806;4.424;2024-03-08T04:26:17;3.70;99.90
23471;DHT22;11908;50.806;4.424;2024-03-08T04:28:43;3.60;99.90
23471;DHT22;11908;50.806;4.424;2024-03-08T04:31:09;3.60;99.90
23471;DHT22;11908;50.806;4.424;2024-03-08T04:33:36;3.60;99.90
23471;DHT22;11908;50.806;4.424;2024-03-08T04:36:01;3.50;99.90
23471;DHT22;11908;50.806;4.424;2024-03-08T04:38:30;3.60;99.90
23471;DHT22;11908;50.806;4.424;2024-03-08T04:40:57;3.60;99.90
23471;DHT22;11908;50.806;4.424;2024-03-08T04:43:23;3.60;99.90
23471;DHT22;11908;50.806;4.424;2024-03-08T04:45:52;3.60;99.90
23471;DHT22;11908;50.806;4.424;2024-03-08T04:48:19;3.60;99.90
23471;DHT22;11908;50.806;4.424;2024-03-08T04:50:46;3.60;99.90
23471;DHT22;11908;50.806;4.424;2024-03-08T04:53:11;3.60;99.90
23471;DHT22;11908;50.806;4.424;2024-03-08T04:55:37;3.60;99.90
23471;DHT22;11908;50.806;4.424;2024-03-08T04:58:03;3.50;99.90
23471;DHT22;11908;50.806;4.424;2024-03-08T05:00:32;3.50;99.90
23471;DHT22;11908;50.806;4.424;2024-03-08T05:02:58;3.50;99.90
23471;DHT22;11908;50.806;4.424;2024-03-08T05:05:24;3.60;99.90
23471;DHT22;11908;50.806;4.424;2024-03-08T05:07:50;3.60;99.90
23471;DHT22;11908;50.806;4.424;2024-03-08T05:10:16;3.60;99.90
23471;DHT22;11908;50.806;4.424;2024-03-08T05:12:43;3.60;99.90
23471;DHT22;11908;50.806;4.424;2024-03-08T05:15:09;3.50;99.90
23471;DHT22;11908;50.806;4.424;2024-03-08T05:17:35;3.50;99.90
23471;DHT22;11908;50.806;4.424;2024-03-08T05:20:01;3.40;99.90
23471;DHT22;11908;50.806;4.424;2024-03-08T05:22:26;3.50;99.90
23471;DHT22;11908;50.806;4.424;2024-03-08T05:24:53;3.60;99.90
23471;DHT22;11908;50.806;4.424;2024-03-08T05:27:19;3.50;99.90
23471;DHT22;11908;50.806;4.424;2024-03-08T05:29:44;3.60;99.90
23471;DHT22;11908;50.806;4.424;2024-03-08T05:32:12;3.40;99.90
23471;DHT22;11908;50.806;4.424;2024-03-08T05:34:38;3.50;99.90
23471;DHT22;11908;50.806;4.424;2024-03-08T05:37:04;3.30;99.90
23471;DHT22;11908;50.806;4.424;2024-03-08T05:39:30;3.40;99.90
23471;DHT22;11908;50.806;4.424;2024-03-08T05:41:55;3.30;99.90
23471;DHT22;11908;50.806;4.424;2024-03-08T05:44:21;3.30;99.90
23471;DHT22;11908;50.806;4.424;2024-03-08T05:46:47;3.40;99.90
23471;DHT22;11908;50.806;4.424;2024-03-08T05:49:13;3.30;99.90
23471;DHT22;11908;50.806;4.424;2024-03-08T05:51:40;3.30;99.90
23471;DHT22;11908;50.806;4.424;2024-03-08T05:54:10;3.30;99.90
23471;DHT22;11908;50.806;4.424;2024-03-08T05:56:37;3.30;99.90
23471;DHT22;11908;50.806;4.424;2024-03-08T05:59:03;3.40;99.90
23471;DHT22;11908;50.806;4.424;2024-03-08T06:01:29;3.40;99.90
23471;DHT22;11908;50.806;4.424;2024-03-08T06:03:56;3.30;99.90
23471;DHT22;11908;50.806;4.424;2024-03-08T06:06:23;3.30;99.90
23471;DHT22;11908;50.806;4.424;2024-03-08T06:08:49;3.30;99.90
23471;DHT22;11908;50.806;4.424;2024-03-08T06:11:17;3.30;99.90
23471;DHT22;11908;50.806;4.424;2024-03-08T06:13:46;3.40;99.90
23471;DHT22;11908;50.806;4.424;2024-03-08T06:16:12;3.40;99.90
23471;DHT22;11908;50.806;4.424;2024-03-08T06:18:38;3.40;99.90
23471;DHT22;11908;50.806;4.424;2024-03-08T06:21:07;3.30;99.90
23471;DHT22;11908;50.806;4.424;2024-03-08T06:23:37;3.40;99.90
23471;DHT22;11908;50.806;4.424;2024-03-08T06:26:06;3.30;99.90
23471;DHT22;11908;50.806;4.424;2024-03-08T06:28:34;3.30;99.90
23471;DHT22;11908;50.806;4.424;2024-03-08T06:31:04;3.30;99.90
23471;DHT22;11908;50.806;4.424;2024-03-08T06:33:30;3.40;99.90
23471;DHT22;11908;50.806;4.424;2024-03-08T06:35:58;3.40;99.90
23471;DHT22;11908;50.806;4.424;2024-03-08T06:38:24;3.50;99.90
23471;DHT22;11908;50.806;4.424;2024-03-08T06:40:51;3.40;99.90
23471;DHT22;11908;50.806;4.424;2024-03-08T06:43:17;3.40;99.90
23471;DHT22;11908;50.806;4.424;2024-03-08T06:45:44;3.50;99.90
23471;DHT22;11908;50.806;4.424;2024-03-08T06:48:15;3.50;99.90
23471;DHT22;11908;50.806;4.424;2024-03-08T06:50:47;3.60;99.90
23471;DHT22;11908;50.806;4.424;2024-03-08T06:53:13;3.70;99.90
23471;DHT22;11908;50.806;4.424;2024-03-08T06:55:39;3.70;99.90
23471;DHT22;11908;50.806;4.424;2024-03-08T06:58:05;3.90;99.90
23471;DHT22;11908;50.806;4.424;2024-03-08T07:00:33;4.00;99.90
23471;DHT22;11908;50.806;4.424;2024-03-08T07:02:59;4.00;99.90
23471;DHT22;11908;50.806;4.424;2024-03-08T07:05:28;4.00;99.90
23471;DHT22;11908;50.806;4.424;2024-03-08T07:07:57;4.00;99.90
23471;DHT22;11908;50.806;4.424;2024-03-08T07:10:23;4.00;99.90
23471;DHT22;11908;50.806;4.424;2024-03-08T07:12:52;4.00;99.90
23471;DHT22;11908;50.806;4.424;2024-03-08T07:15:21;4.00;99.90
23471;DHT22;11908;50.806;4.424;2024-03-08T07:17:48;4.20;99.90
23471;DHT22;11908;50.806;4.424;2024-03-08T07:20:15;4.40;99.90
23471;DHT22;11908;50.806;4.424;2024-03-08T07:22:47;4.40;99.90
23471;DHT22;11908;50.806;4.424;2024-03-08T07:25:14;4.50;99.90
23471;DHT22;11908;50.806;4.424;2024-03-08T07:27:55;4.60;99.90
23471;DHT22;11908;50.806;4.424;2024-03-08T07:30:25;4.70;99.90
23471;DHT22;11908;50.806;4.424;2024-03-08T07:33:10;4.80;99.90
23471;DHT22;11908;50.806;4.424;2024-03-08T07:35:39;4.80;99.90
23471;DHT22;11908;50.806;4.424;2024-03-08T07:40:35;4.70;99.90
23471;DHT22;11908;50.806;4.424;2024-03-08T07:43:01;4.70;99.90
23471;DHT22;11908;50.806;4.424;2024-03-08T07:45:28;4.80;99.90
23471;DHT22;11908;50.806;4.424;2024-03-08T07:47:53;4.90;99.90
23471;DHT22;11908;50.806;4.424;2024-03-08T07:50:19;4.90;99.90
23471;DHT22;11908;50.806;4.424;2024-03-08T07:52:45;5.00;99.90
23471;DHT22;11908;50.806;4.424;2024-03-08T07:55:11;5.20;99.90
23471;DHT22;11908;50.806;4.424;2024-03-08T07:57:37;5.20;99.90
23471;DHT22;11908;50.806;4.424;2024-03-08T08:00:06;5.20;99.90
23471;DHT22;11908;50.806;4.424;2024-03-08T08:02:34;5.30;99.90
23471;DHT22;11908;50.806;4.424;2024-03-08T08:05:01;5.60;99.90
23471;DHT22;11908;50.806;4.424;2024-03-08T08:07:26;5.80;99.90
23471;DHT22;11908;50.806;4.424;2024-03-08T08:09:53;5.90;99.90
23471;DHT22;11908;50.806;4.424;2024-03-08T08:12:19;5.90;99.90
23471;DHT22;11908;50.806;4.424;2024-03-08T08:14:45;5.90;99.90
23471;DHT22;11908;50.806;4.424;2024-03-08T08:17:12;6.10;99.90
23471;DHT22;11908;50.806;4.424;2024-03-08T08:19:38;6.30;99.90
23471;DHT22;11908;50.806;4.424;2024-03-08T08:22:06;6.40;99.90
23471;DHT22;11908;50.806;4.424;2024-03-08T08:24:35;6.30;99.90
23471;DHT22;11908;50.806;4.424;2024-03-08T08:27:06;6.40;99.90
23471;DHT22;11908;50.806;4.424;2024-03-08T08:29:32;6.40;99.90
23471;DHT22;11908;50.806;4.424;2024-03-08T08:31:58;6.40;99.90
23471;DHT22;11908;50.806;4.424;2024-03-08T08:34:25;6.40;99.90
23471;DHT22;11908;50.806;4.424;2024-03-08T08:36:52;6.70;99.90
23471;DHT22;11908;50.806;4.424;2024-03-08T08:39:18;7.10;99.90
23471;DHT22;11908;50.806;4.424;2024-03-08T08:41:44;7.40;99.90
23471;DHT22;11908;50.806;4.424;2024-03-08T08:44:10;7.50;99.90
23471;DHT22;11908;50.806;4.424;2024-03-08T08:46:38;7.90;99.90
23471;DHT22;11908;50.806;4.424;2024-03-08T08:49:04;8.50;99.90
23471;DHT22;11908;50.806;4.424;2024-03-08T08:51:32;8.80;99.90
23471;DHT22;11908;50.806;4.424;2024-03-08T08:53:59;8.50;99.90
23471;DHT22;11908;50.806;4.424;2024-03-08T08:56:25;8.30;99.90
23471;DHT22;11908;50.806;4.424;2024-03-08T08:58:52;8.20;99.90
23471;DHT22;11908;50.806;4.424;2024-03-08T09:01:19;8.60;99.90
23471;DHT22;11908;50.806;4.424;2024-03-08T09:03:45;9.00;99.90
23471;DHT22;11908;50.806;4.424;2024-03-08T09:06:12;9.70;99.90
23471;DHT22;11908;50.806;4.424;2024-03-08T09:08:39;9.90;99.90
23471;DHT22;11908;50.806;4.424;2024-03-08T09:11:05;10.10;99.90
23471;DHT22;11908;50.806;4.424;2024-03-08T09:13:32;10.00;99.90
23471;DHT22;11908;50.806;4.424;2024-03-08T09:15:59;9.60;99.90
23471;DHT22;11908;50.806;4.424;2024-03-08T09:18:25;9.50;99.90
23471;DHT22;11908;50.806;4.424;2024-03-08T09:20:51;9.90;99.90
23471;DHT22;11908;50.806;4.424;2024-03-08T09:23:22;9.30;99.90
23471;DHT22;11908;50.806;4.424;2024-03-08T09:25:47;9.10;99.90
23471;DHT22;11908;50.806;4.424;2024-03-08T09:28:13;9.20;99.90
23471;DHT22;11908;50.806;4.424;2024-03-08T09:30:39;9.70;99.90
23471;DHT22;11908;50.806;4.424;2024-03-08T09:33:05;9.70;99.90
23471;DHT22;11908;50.806;4.424;2024-03-08T09:35:32;9.80;99.90
23471;DHT22;11908;50.806;4.424;2024-03-08T09:37:58;10.00;99.90
23471;DHT22;11908;50.806;4.424;2024-03-08T09:40:23;10.20;99.90
23471;DHT22;11908;50.806;4.424;2024-03-08T09:42:51;10.20;99.90
23471;DHT22;11908;50.806;4.424;2024-03-08T09:45:20;9.90;99.90
23471;DHT22;11908;50.806;4.424;2024-03-08T09:47:48;10.30;99.90
23471;DHT22;11908;50.806;4.424;2024-03-08T09:50:17;10.50;99.90
23471;DHT22;11908;50.806;4.424;2024-03-08T09:52:44;10.30;99.90
23471;DHT22;11908;50.806;4.424;2024-03-08T09:55:12;10.40;99.90
23471;DHT22;11908;50.806;4.424;2024-03-08T09:57:39;10.70;99.90
23471;DHT22;11908;50.806;4.424;2024-03-08T10:00:05;11.00;99.90
23471;DHT22;11908;50.806;4.424;2024-03-08T10:02:47;11.10;99.90
23471;DHT22;11908;50.806;4.424;2024-03-08T10:05:13;11.40;99.90
23471;DHT22;11908;50.806;4.424;2024-03-08T10:07:39;11.40;99.90
23471;DHT22;11908;50.806;4.424;2024-03-08T10:10:05;11.90;99.90
23471;DHT22;11908;50.806;4.424;2024-03-08T10:12:36;12.20;99.90
23471;DHT22;11908;50.806;4.424;2024-03-08T10:15:02;12.20;99.90
23471;DHT22;11908;50.806;4.424;2024-03-08T10:17:28;12.20;99.90
23471;DHT22;11908;50.806;4.424;2024-03-08T10:19:58;12.40;99.90
23471;DHT22;11908;50.806;4.424;2024-03-08T10:22:25;12.40;99.90
23471;DHT22;11908;50.806;4.424;2024-03-08T10:24:51;12.20;99.90
23471;DHT22;11908;50.806;4.424;2024-03-08T10:27:19;12.40;99.90
23471;DHT22;11908;50.806;4.424;2024-03-08T10:29:52;12.40;99.90
23471;DHT22;11908;50.806;4.424;2024-03-08T10:32:18;13.40;99.90
23471;DHT22;11908;50.806;4.424;2024-03-08T10:34:44;13.90;99.90
23471;DHT22;11908;50.806;4.424;2024-03-08T10:37:15;13.70;99.90
23471;DHT22;11908;50.806;4.424;2024-03-08T10:39:47;13.60;99.90
23471;DHT22;11908;50.806;4.424;2024-03-08T10:42:19;13.30;99.90
23471;DHT22;11908;50.806;4.424;2024-03-08T10:47:33;13.40;99.90
23471;DHT22;11908;50.806;4.424;2024-03-08T10:50:10;13.20;99.90
23471;DHT22;11908;50.806;4.424;2024-03-08T10:52:38;13.10;99.90
23471;DHT22;11908;50.806;4.424;2024-03-08T10:55:05;12.90;99.90
23471;DHT22;11908;50.806;4.424;2024-03-08T10:57:38;11.70;99.90
23471;DHT22;11908;50.806;4.424;2024-03-08T11:00:07;12.50;99.90
23471;DHT22;11908;50.806;4.424;2024-03-08T11:02:36;12.80;99.90
23471;DHT22;11908;50.806;4.424;2024-03-08T11:05:03;13.10;99.90
23471;DHT22;11908;50.806;4.424;2024-03-08T11:07:33;13.40;99.90
23471;DHT22;11908;50.806;4.424;2024-03-08T11:10:02;13.50;99.90
23471;DHT22;11908;50.806;4.424;2024-03-08T11:12:37;13.60;99.90
23471;DHT22;11908;50.806;4.424;2024-03-08T11:15:12;14.10;99.90
23471;DHT22;11908;50.806;4.424;2024-03-08T11:17:48;14.10;99.90
23471;DHT22;11908;50.806;4.424;2024-03-08T11:20:19;13.70;99.90
23471;DHT22;11908;50.806;4.424;2024-03-08T11:22:59;13.40;99.90
23471;DHT22;11908;50.806;4.424;2024-03-08T11:25:37;13.10;99.90
23471;DHT22;11908;50.806;4.424;2024-03-08T11:28:22;13.30;99.90
23471;DHT22;11908;50.806;4.424;2024-03-08T11:33:30;13.40;99.90
23471;DHT22;11908;50.806;4.424;2024-03-08T11:36:13;13.60;99.90
23471;DHT22;11908;50.806;4.424;2024-03-08T11:38:42;13.60;99.90
23471;DHT22;11908;50.806;4.424;2024-03-08T11:41:22;13.40;99.90
23471;DHT22;11908;50.806;4.424;2024-03-08T11:43:50;13.50;99.90
23471;DHT22;11908;50.806;4.424;2024-03-08T11:46:26;13.30;99.90
23471;DHT22;11908;50.806;4.424;2024-03-08T11:48:54;13.30;99.90
23471;DHT22;11908;50.806;4.424;2024-03-08T11:51:23;13.40;99.90
23471;DHT22;11908;50.806;4.424;2024-03-08T11:53:49;13.10;99.90
23471;DHT22;11908;50.806;4.424;2024-03-08T11:56:15;12.90;99.90
23471;DHT22;11908;50.806;4.424;2024-03-08T11:58:42;12.80;99.90
23471;DHT22;11908;50.806;4.424;2024-03-08T12:01:10;12.70;99.90
23471;DHT22;11908;50.806;4.424;2024-03-08T12:03:39;12.80;99.90
23471;DHT22;11908;50.806;4.424;2024-03-08T12:06:10;12.80;99.90
23471;DHT22;11908;50.806;4.424;2024-03-08T12:08:36;12.80;99.90
23471;DHT22;11908;50.806;4.424;2024-03-08T12:11:05;12.90;99.90
23471;DHT22;11908;50.806;4.424;2024-03-08T12:13:32;12.90;99.90
23471;DHT22;11908;50.806;4.424;2024-03-08T12:16:02;12.40;99.90
23471;DHT22;11908;50.806;4.424;2024-03-08T12:18:38;12.50;99.90
23471;DHT22;11908;50.806;4.424;2024-03-08T12:23:36;12.30;99.90
23471;DHT22;11908;50.806;4.424;2024-03-08T12:26:23;12.30;99.90
23471;DHT22;11908;50.806;4.424;2024-03-08T12:28:49;13.00;99.90
23471;DHT22;11908;50.806;4.424;2024-03-08T12:31:16;12.80;99.90
23471;DHT22;11908;50.806;4.424;2024-03-08T12:33:53;12.80;99.90
23471;DHT22;11908;50.806;4.424;2024-03-08T12:36:20;12.90;99.90
23471;DHT22;11908;50.806;4.424;2024-03-08T12:38:49;12.70;99.90
23471;DHT22;11908;50.806;4.424;2024-03-08T12:41:15;12.10;99.90
23471;DHT22;11908;50.806;4.424;2024-03-08T12:43:43;11.80;99.90
23471;DHT22;11908;50.806;4.424;2024-03-08T12:46:14;11.70;99.90
23471;DHT22;11908;50.806;4.424;2024-03-08T12:48:40;11.60;99.90
23471;DHT22;11908;50.806;4.424;2024-03-08T12:51:09;11.50;99.90
23471;DHT22;11908;50.806;4.424;2024-03-08T12:53:35;11.70;99.90
23471;DHT22;11908;50.806;4.424;2024-03-08T12:56:02;11.90;99.90
23471;DHT22;11908;50.806;4.424;2024-03-08T12:58:29;11.90;99.90
23471;DHT22;11908;50.806;4.424;2024-03-08T13:00:55;12.00;99.90
23471;DHT22;11908;50.806;4.424;2024-03-08T13:03:21;12.00;99.90
23471;DHT22;11908;50.806;4.424;2024-03-08T13:05:48;12.10;99.90
23471;DHT22;11908;50.806;4.424;2024-03-08T13:08:15;12.20;99.90
23471;DHT22;11908;50.806;4.424;2024-03-08T13:10:42;12.40;99.90
23471;DHT22;11908;50.806;4.424;2024-03-08T13:13:11;12.50;99.90
23471;DHT22;11908;50.806;4.424;2024-03-08T13:15:42;12.30;99.90
23471;DHT22;11908;50.806;4.424;2024-03-08T13:18:08;12.20;99.90
23471;DHT22;11908;50.806;4.424;2024-03-08T13:20:35;11.90;99.90
23471;DHT22;11908;50.806;4.424;2024-03-08T13:23:04;11.90;99.90
23471;DHT22;11908;50.806;4.424;2024-03-08T13:25:31;12.00;99.90
23471;DHT22;11908;50.806;4.424;2024-03-08T13:27:57;12.30;99.90
23471;DHT22;11908;50.806;4.424;2024-03-08T13:30:25;12.60;99.90
23471;DHT22;11908;50.806;4.424;2024-03-08T13:32:55;12.80;99.90
23471;DHT22;11908;50.806;4.424;2024-03-08T13:35:20;12.90;99.90
23471;DHT22;11908;50.806;4.424;2024-03-08T13:37:52;12.90;99.90
23471;DHT22;11908;50.806;4.424;2024-03-08T13:40:17;13.00;99.90
23471;DHT22;11908;50.806;4.424;2024-03-08T13:42:47;13.00;99.90
23471;DHT22;11908;50.806;4.424;2024-03-08T13:45:15;13.00;99.90
23471;DHT22;11908;50.806;4.424;2024-03-08T13:47:43;13.00;99.90
23471;DHT22;11908;50.806;4.424;2024-03-08T13:50:10;12.90;99.90
23471;DHT22;11908;50.806;4.424;2024-03-08T13:52:43;12.90;99.90
23471;DHT22;11908;50.806;4.424;2024-03-08T13:55:09;13.00;99.90
23471;DHT22;11908;50.806;4.424;2024-03-08T13:57:36;13.10;99.90
23471;DHT22;11908;50.806;4.424;2024-03-08T14:00:02;13.00;99.90
23471;DHT22;11908;50.806;4.424;2024-03-08T14:02:28;12.90;99.90
23471;DHT22;11908;50.806;4.424;2024-03-08T14:04:55;13.00;99.90
23471;DHT22;11908;50.806;4.424;2024-03-08T14:07:21;13.00;99.90
23471;DHT22;11908;50.806;4.424;2024-03-08T14:09:49;12.70;99.90
23471;DHT22;11908;50.806;4.424;2024-03-08T14:12:14;12.70;99.90
23471;DHT22;11908;50.806;4.424;2024-03-08T14:14:41;12.60;99.90
23471;DHT22;11908;50.806;4.424;2024-03-08T14:17:07;12.60;99.90
23471;DHT22;11908;50.806;4.424;2024-03-08T14:19:35;12.70;99.90
23471;DHT22;11908;50.806;4.424;2024-03-08T14:22:01;12.70;99.90
23471;DHT22;11908;50.806;4.424;2024-03-08T14:24:30;12.70;99.90
23471;DHT22;11908;50.806;4.424;2024-03-08T14:26:56;12.80;99.90
23471;DHT22;11908;50.806;4.424;2024-03-08T14:29:25;12.80;99.90
23471;DHT22;11908;50.806;4.424;2024-03-08T14:31:55;12.90;99.90
23471;DHT22;11908;50.806;4.424;2024-03-08T14:34:23;12.80;99.90
23471;DHT22;11908;50.806;4.424;2024-03-08T14:36:52;12.70;99.90
23471;DHT22;11908;50.806;4.424;2024-03-08T14:39:19;12.70;99.90
23471;DHT22;11908;50.806;4.424;2024-03-08T14:41:52;12.70;99.90
23471;DHT22;11908;50.806;4.424;2024-03-08T14:44:22;12.70;99.90
23471;DHT22;11908;50.806;4.424;2024-03-08T14:46:58;12.60;99.90
23471;DHT22;11908;50.806;4.424;2024-03-08T14:49:24;12.70;99.90
23471;DHT22;11908;50.806;4.424;2024-03-08T14:51:54;12.70;99.90
23471;DHT22;11908;50.806;4.424;2024-03-08T14:54:20;12.90;99.90
23471;DHT22;11908;50.806;4.424;2024-03-08T14:56:48;12.90;99.90
23471;DHT22;11908;50.806;4.424;2024-03-08T14:59:17;13.00;99.90
23471;DHT22;11908;50.806;4.424;2024-03-08T15:01:45;13.10;99.90
23471;DHT22;11908;50.806;4.424;2024-03-08T15:04:12;13.10;99.90
23471;DHT22;11908;50.806;4.424;2024-03-08T15:06:38;13.10;99.90
23471;DHT22;11908;50.806;4.424;2024-03-08T15:09:04;13.20;99.90
23471;DHT22;11908;50.806;4.424;2024-03-08T15:11:50;13.10;99.90
23471;DHT22;11908;50.806;4.424;2024-03-08T15:14:15;13.10;99.90
23471;DHT22;11908;50.806;4.424;2024-03-08T15:16:47;13.10;99.90
23471;DHT22;11908;50.806;4.424;2024-03-08T15:19:17;13.20;99.90
23471;DHT22;11908;50.806;4.424;2024-03-08T15:21:46;13.20;99.90
23471;DHT22;11908;50.806;4.424;2024-03-08T15:24:13;13.10;99.90
23471;DHT22;11908;50.806;4.424;2024-03-08T15:26:41;12.90;99.90
23471;DHT22;11908;50.806;4.424;2024-03-08T15:29:08;12.90;99.90
23471;DHT22;11908;50.806;4.424;2024-03-08T15:31:34;12.80;99.90
23471;DHT22;11908;50.806;4.424;2024-03-08T15:34:01;12.70;99.90
23471;DHT22;11908;50.806;4.424;2024-03-08T15:36:32;12.70;99.90
23471;DHT22;11908;50.806;4.424;2024-03-08T15:38:59;12.70;99.90
23471;DHT22;11908;50.806;4.424;2024-03-08T15:41:25;12.70;99.90
23471;DHT22;11908;50.806;4.424;2024-03-08T15:43:53;12.80;99.90
23471;DHT22;11908;50.806;4.424;2024-03-08T15:46:20;12.90;99.90
23471;DHT22;11908;50.806;4.424;2024-03-08T15:48:48;12.80;99.90
23471;DHT22;11908;50.806;4.424;2024-03-08T15:51:14;12.80;99.90
23471;DHT22;11908;50.806;4.424;2024-03-08T15:53:43;12.70;99.90